Página principal
METAR-TAF:

METAR-TAF

Aeroportos :

Aeroporto Internacional de Adelaide

Adelaide, Austrália

latitude: 34-56S, longitude: 138-31E, altura: 6 m

Observação actual do tempo

O boletim foi feito há 22 minutos, às 00:00 UTC
Vento 11 kt de nor-nordeste
Temperatura 18°C
Humidade 39%
Pressão 1022 hPa
Visibilidade 10 km ou mais
sem nuvens abaixo de 1500 metros e sem cumulonimbus

METAR: YPAD 260000Z 03011KT CAVOK 18/04 Q1022 NOSIG

Hora: 09:52 (00:22 UTC)

Previsão

O boletim foi feito há 1 hora e 16 minutos, às 23:06 UTC
Previsão válida de 26 às 00 UTC a 27 às 06 UTC
Vento 12 kt de nor-nordeste
Visibilidade 10 km ou mais
sem nuvens abaixo de 1500 metros e sem cumulonimbus
A partir de 26 às 2200 UTC
Vento 14 kt de norte
Visibilidade 10 km ou mais
Nuvens dispersasa uma altura de 4000 ft
chuva fraca

TAF: YPAD 252306Z 2600/2706 03012KT CAVOK FM262200 36014KT 9999 -RA SCT040

Observações e previsões do tempo de mais de 4000 aeroportos (mensagens METAR e TAF).

As estações disponíveis são os pontos amarelos e vermelhos sobre o mapa.

Mova o rato sobre o mapa para ver o nome da estação.

Depois clique no ponto para visualizar as observações e previsões meteorológicas.

Para alterar o mapa : clique nos botões verdes com uma cruz preta para aumentar o zoom; no botão verde com uma pitada de zoom; ou nas setas verdes para mapas adjacentes.


METAR-TAF: